Time;durP1;ratioP1;P1;durP2;ratioP2;P2;SDS_P1;SDS_P2;PMS_P1;PMS_P2;Temp;Humidity;BMP_temperature;BMP_pressure;BME280_temperature;BME280_humidity;BME280_pressure;Samples;Min_cycle;Max_cycle;Signal;HPM_P1;HPM_P2
2021/05/27 00:00:25;;;;;;;2.73;1.20;;;19.40;63.90;;;;;;5103036;27;20275;-73
2021/05/27 00:02:51;;;;;;;2.83;1.30;;;19.30;63.90;;;;;;5103570;28;20820;-73
2021/05/27 00:05:19;;;;;;;3.10;1.30;;;19.30;63.80;;;;;;5089277;28;20173;-71
2021/05/27 00:07:46;;;;;;;3.73;1.10;;;19.30;63.60;;;;;;5124799;28;20198;-72
2021/05/27 00:10:20;;;;;;;3.57;1.20;;;19.30;63.70;;;;;;5095144;27;20186;-72
2021/05/27 00:12:47;;;;;;;3.43;1.10;;;19.20;63.50;;;;;;5102147;27;20190;-72
2021/05/27 00:15:15;;;;;;;4.30;1.20;;;19.30;63.40;;;;;;5087309;27;20185;-73
2021/05/27 00:17:43;;;;;;;5.30;1.30;;;19.30;63.20;;;;;;5121023;27;20656;-72
2021/05/27 00:20:13;;;;;;;3.43;1.40;;;19.30;63.20;;;;;;5118825;27;20196;-73
2021/05/27 00:22:41;;;;;;;3.23;1.47;;;19.40;63.50;;;;;;5105719;27;20213;-72
2021/05/27 00:25:10;;;;;;;3.83;1.50;;;19.30;62.90;;;;;;5088811;27;20272;-72
2021/05/27 00:27:37;;;;;;;4.57;1.87;;;19.40;63.40;;;;;;5122383;27;20627;-72
2021/05/27 00:30:06;;;;;;;2.87;1.47;;;19.30;63.50;;;;;;5102915;27;20199;-72
2021/05/27 00:32:33;;;;;;;4.03;1.30;;;19.20;63.80;;;;;;5122749;27;20241;-73
2021/05/27 00:34:59;;;;;;;5.63;1.60;;;19.20;63.80;;;;;;5102156;27;20871;-73
2021/05/27 00:37:26;;;;;;;3.93;1.20;;;19.20;63.80;;;;;;5106354;27;20249;-72
2021/05/27 00:39:52;;;;;;;7.70;1.57;;;19.20;63.80;;;;;;5101666;27;20200;-72
2021/05/27 00:42:18;;;;;;;5.80;1.50;;;19.10;63.70;;;;;;5104204;27;20274;-72
2021/05/27 00:45:13;;;;;;;6.27;1.50;;;19.10;63.90;;;;;;5121146;27;20220;-71
2021/05/27 00:47:42;;;;;;;8.77;1.40;;;19.20;64.00;;;;;;5105102;27;20228;-73
2021/05/27 00:50:22;;;;;;;4.73;1.73;;;19.10;64.00;;;;;;5121704;27;20219;-73
2021/05/27 00:52:54;;;;;;;8.40;1.70;;;19.10;64.10;;;;;;5118885;27;20192;-72
2021/05/27 00:55:24;;;;;;;3.60;1.70;;;19.10;64.20;;;;;;5124730;27;20192;-72
2021/05/27 00:57:53;;;;;;;5.10;1.63;;;19.10;64.40;;;;;;5123974;27;20181;-73
2021/05/27 01:00:25;;;;;;;4.23;1.67;;;19.10;64.50;;;;;;5101129;27;20671;-72
2021/05/27 01:02:51;;;;;;;4.47;1.57;;;19.10;64.90;;;;;;5086861;27;20312;-73
2021/05/27 01:05:18;;;;;;;5.10;1.53;;;19.10;64.90;;;;;;5090588;27;20239;-72
2021/05/27 01:07:46;;;;;;;4.80;1.33;;;19.10;65.00;;;;;;5123317;27;20919;-72
2021/05/27 01:10:13;;;;;;;4.37;1.47;;;19.00;65.00;;;;;;5104771;27;20187;-72
2021/05/27 01:12:40;;;;;;;6.03;1.63;;;19.00;65.00;;;;;;5122306;27;20276;-72
2021/05/27 01:15:31;;;;;;;7.93;1.67;;;19.00;64.90;;;;;;5090748;27;20190;-72
2021/05/27 01:18:00;;;;;;;6.40;1.50;;;19.00;64.90;;;;;;5097110;27;20184;-72
2021/05/27 01:20:30;;;;;;;7.43;1.50;;;19.00;65.10;;;;;;5089759;27;20313;-72
2021/05/27 01:22:56;;;;;;;7.63;1.73;;;18.80;65.30;;;;;;5099829;27;20220;-72
2021/05/27 01:25:23;;;;;;;3.67;1.40;;;18.80;65.70;;;;;;5121393;27;20228;-72
2021/05/27 01:27:49;;;;;;;10.73;1.70;;;19.00;66.00;;;;;;5120247;27;20200;-71
2021/05/27 01:30:19;;;;;;;3.70;1.57;;;19.00;65.70;;;;;;5100521;27;20188;-71
2021/05/27 01:32:47;;;;;;;3.53;1.33;;;19.00;65.80;;;;;;5117664;27;20197;-72
2021/05/27 01:35:20;;;;;;;7.47;1.97;;;19.00;65.70;;;;;;5102611;27;20194;-71
2021/05/27 01:37:47;;;;;;;3.03;1.50;;;19.00;65.80;;;;;;5103635;27;20189;-71
2021/05/27 01:40:17;;;;;;;7.60;1.33;;;19.00;65.90;;;;;;5121747;27;20894;-71
2021/05/27 01:42:45;;;;;;;2.17;1.23;;;19.00;65.70;;;;;;5102992;27;20213;-71
2021/05/27 01:45:18;;;;;;;7.63;1.40;;;19.00;65.70;;;;;;5120788;27;20193;-71
2021/05/27 01:47:56;;;;;;;3.97;1.70;;;19.00;65.70;;;;;;5091062;27;20189;-71
2021/05/27 01:50:29;;;;;;;2.27;1.60;;;19.00;65.70;;;;;;5106735;27;20225;-70
2021/05/27 01:53:09;;;;;;;3.83;1.73;;;19.00;65.60;;;;;;5116807;27;20184;-71
2021/05/27 01:55:59;;;;;;;6.70;1.70;;;19.00;65.80;;;;;;5090116;27;20265;-71
2021/05/27 01:58:27;;;;;;;8.80;1.63;;;19.00;65.80;;;;;;5091036;27;20239;-72
2021/05/27 02:00:54;;;;;;;5.37;1.50;;;18.90;66.10;;;;;;5105520;27;20237;-71
2021/05/27 02:03:21;;;;;;;3.30;1.40;;;18.90;66.40;;;;;;5082806;27;20327;-71
2021/05/27 02:05:49;;;;;;;3.23;1.50;;;19.00;66.40;;;;;;5121345;27;20207;-71
2021/05/27 02:08:22;;;;;;;8.93;1.60;;;19.00;65.90;;;;;;5102284;27;20212;-71
2021/05/27 02:10:54;;;;;;;4.97;1.50;;;18.90;65.30;;;;;;5085559;27;20826;-71
2021/05/27 02:13:26;;;;;;;8.17;1.70;;;19.00;65.10;;;;;;5104767;27;20184;-71
2021/05/27 02:15:57;;;;;;;14.77;2.07;;;18.90;64.70;;;;;;5101262;27;20235;-71
2021/05/27 02:18:27;;;;;;;9.57;1.70;;;19.00;64.80;;;;;;5106499;27;20227;-71
2021/05/27 02:21:02;;;;;;;5.50;1.60;;;19.00;64.80;;;;;;5104862;27;20298;-71
2021/05/27 02:23:30;;;;;;;9.47;1.73;;;19.00;64.80;;;;;;5084790;27;20230;-72
2021/05/27 02:26:00;;;;;;;4.60;1.63;;;19.00;64.80;;;;;;5104515;27;20272;-71
2021/05/27 02:28:30;;;;;;;3.97;1.67;;;19.00;65.00;;;;;;5120361;27;20275;-70
2021/05/27 02:30:56;;;;;;;4.97;1.50;;;19.20;64.50;;;;;;5099708;27;20713;-71
2021/05/27 02:33:26;;;;;;;4.77;1.70;;;19.40;64.40;;;;;;5104162;27;20187;-71
2021/05/27 02:35:52;;;;;;;8.57;2.00;;;19.30;64.90;;;;;;5102457;27;20185;-72
2021/05/27 02:38:18;;;;;;;12.17;1.60;;;19.10;65.60;;;;;;5123544;27;20712;-71
2021/05/27 02:40:45;;;;;;;6.70;1.73;;;19.10;66.30;;;;;;5118873;27;20809;-71
2021/05/27 02:43:11;;;;;;;11.87;1.97;;;19.10;66.10;;;;;;5108248;27;20704;-71
2021/05/27 02:45:37;;;;;;;6.73;2.20;;;19.00;67.00;;;;;;5085971;27;20730;-71
2021/05/27 02:48:04;;;;;;;9.67;2.00;;;18.90;67.70;;;;;;5107391;27;20215;-70
2021/05/27 02:50:30;;;;;;;8.10;2.00;;;18.80;68.20;;;;;;5103245;27;20696;-71
2021/05/27 02:52:56;;;;;;;7.30;1.90;;;18.70;69.10;;;;;;5089053;28;20219;-73
2021/05/27 02:55:23;;;;;;;4.53;1.80;;;18.60;69.80;;;;;;5088379;28;20185;-72
2021/05/27 02:57:49;;;;;;;6.87;2.00;;;18.40;69.60;;;;;;5104062;27;20181;-73
2021/05/27 03:00:16;;;;;;;4.47;1.70;;;18.30;70.30;;;;;;5089796;27;20190;-72
2021/05/27 03:02:42;;;;;;;3.67;1.90;;;18.20;70.80;;;;;;5117889;27;20313;-73
2021/05/27 03:05:09;;;;;;;7.97;1.97;;;18.20;71.10;;;;;;5090021;28;20193;-72
2021/05/27 03:07:35;;;;;;;8.20;1.77;;;18.20;71.40;;;;;;5120877;27;20886;-72
2021/05/27 03:10:02;;;;;;;6.67;1.90;;;18.20;71.40;;;;;;5103818;28;20230;-72
2021/05/27 03:12:29;;;;;;;6.83;2.00;;;18.20;72.10;;;;;;5096475;28;20715;-73
2021/05/27 03:14:55;;;;;;;9.70;2.10;;;18.10;72.20;;;;;;5118997;28;20249;-73
2021/05/27 03:17:21;;;;;;;10.77;2.00;;;18.10;72.70;;;;;;5118930;27;20246;-73
2021/05/27 03:19:47;;;;;;;5.70;1.60;;;18.20;74.10;;;;;;5086312;28;20188;-71
2021/05/27 03:22:14;;;;;;;8.73;2.30;;;18.20;74.00;;;;;;5107733;28;20200;-70
2021/05/27 03:24:40;;;;;;;7.80;1.90;;;18.40;75.00;;;;;;5100211;28;20180;-71
2021/05/27 03:27:07;;;;;;;7.27;2.17;;;18.60;75.70;;;;;;5100626;28;20211;-71
2021/05/27 03:29:33;;;;;;;12.87;2.10;;;18.80;76.70;;;;;;5086827;28;20200;-71
2021/05/27 03:31:59;;;;;;;4.43;1.97;;;19.00;77.90;;;;;;5104342;28;20188;-71
2021/05/27 03:34:25;;;;;;;6.10;2.30;;;19.20;78.20;;;;;;5121141;28;20188;-71
2021/05/27 03:36:52;;;;;;;5.40;2.33;;;19.20;78.90;;;;;;5119161;28;21045;-71
2021/05/27 03:39:18;;;;;;;5.13;1.80;;;19.30;81.30;;;;;;5099936;28;20680;-71
2021/05/27 03:41:44;;;;;;;8.27;2.40;;;19.30;83.50;;;;;;5102724;28;20290;-71
2021/05/27 03:44:10;;;;;;;7.00;2.60;;;19.30;84.30;;;;;;5119344;27;20193;-71
2021/05/27 03:46:36;;;;;;;9.37;2.47;;;19.40;87.00;;;;;;5090965;27;20173;-70
2021/05/27 03:49:03;;;;;;;5.37;1.90;;;19.50;89.80;;;;;;5108199;27;20174;-71
2021/05/27 03:51:30;;;;;;;7.47;2.10;;;19.60;89.00;;;;;;5101309;27;20278;-71
2021/05/27 03:53:56;;;;;;;4.53;2.00;;;19.60;86.40;;;;;;5093634;27;20201;-71
2021/05/27 03:56:22;;;;;;;6.60;2.00;;;19.50;84.10;;;;;;5123724;27;20692;-70
2021/05/27 04:01:34;;;;;;;6.90;2.10;;;19.20;85.40;;;;;;5123296;27;20308;-71
2021/05/27 04:07:10;;;;;;;12.43;2.47;;;19.10;83.00;;;;;;5104485;27;20206;-70
2021/05/27 04:09:38;;;;;;;7.10;1.93;;;19.20;84.50;;;;;;5108133;27;20542;-70
2021/05/27 04:15:36;;;;;;;7.50;2.10;;;19.40;86.10;;;;;;5104105;27;20184;-70
2021/05/27 04:17:38;;;;;;;3.63;1.90;;;19.50;88.30;;;;;;5099985;27;20223;-70
2021/05/27 04:20:06;;;;;;;8.20;2.00;;;19.40;89.20;;;;;;5090619;27;20275;-70
2021/05/27 04:22:33;;;;;;;9.67;2.10;;;19.40;88.80;;;;;;5105434;27;20205;-70
2021/05/27 04:25:01;;;;;;;6.33;1.83;;;19.50;88.10;;;;;;5106775;27;20197;-70
2021/05/27 04:27:27;;;;;;;4.97;1.80;;;19.60;88.20;;;;;;5102776;27;20212;-72
2021/05/27 04:29:54;;;;;;;9.07;2.20;;;19.60;88.30;;;;;;5106685;27;20197;-72
2021/05/27 04:35:06;;;;;;;6.47;2.07;;;19.80;88.30;;;;;;5120402;27;20197;-72
2021/05/27 04:37:32;;;;;;;7.03;1.73;;;20.00;88.20;;;;;;5123507;27;20665;-72
2021/05/27 04:39:59;;;;;;;6.27;2.23;;;20.10;88.00;;;;;;5118965;27;20196;-72
2021/05/27 04:42:25;;;;;;;6.80;2.17;;;20.20;86.90;;;;;;5104067;27;20308;-72
2021/05/27 04:44:51;;;;;;;8.60;2.00;;;20.30;86.90;;;;;;5107649;27;20185;-72
2021/05/27 04:47:17;;;;;;;5.73;2.17;;;20.40;86.20;;;;;;5123918;27;20182;-70
2021/05/27 04:49:43;;;;;;;6.40;1.90;;;20.60;84.30;;;;;;5103867;27;20205;-71
2021/05/27 04:52:10;;;;;;;10.87;2.03;;;20.90;84.30;;;;;;5119534;27;20269;-73
2021/05/27 04:54:36;;;;;;;5.43;1.80;;;20.80;85.40;;;;;;5112594;27;20189;-70
2021/05/27 04:57:02;;;;;;;3.47;2.00;;;20.90;86.00;;;;;;5088358;27;20637;-73
2021/05/27 04:59:29;;;;;;;5.33;1.90;;;21.00;88.00;;;;;;5091703;27;20609;-72
2021/05/27 05:01:56;;;;;;;6.97;2.10;;;21.00;88.10;;;;;;5087978;27;20672;-70
2021/05/27 05:04:22;;;;;;;3.00;1.57;;;21.20;87.20;;;;;;5083785;27;20209;-72
2021/05/27 05:06:50;;;;;;;7.63;1.50;;;21.40;86.70;;;;;;5122230;27;20197;-72
2021/05/27 05:09:16;;;;;;;5.63;1.80;;;21.50;85.60;;;;;;5100496;27;20189;-71
2021/05/27 05:11:42;;;;;;;6.87;1.93;;;21.60;86.50;;;;;;5120650;27;20260;-72
2021/05/27 05:14:09;;;;;;;7.47;1.93;;;21.60;87.20;;;;;;5088919;27;20188;-71
2021/05/27 05:16:35;;;;;;;4.40;2.00;;;21.80;86.40;;;;;;5101099;27;20200;-72
2021/05/27 05:19:01;;;;;;;7.67;2.03;;;21.80;86.50;;;;;;5102798;27;20194;-72
2021/05/27 05:21:28;;;;;;;5.30;1.90;;;22.00;85.40;;;;;;5104769;27;20184;-71
2021/05/27 05:23:54;;;;;;;15.70;2.17;;;22.40;74.00;;;;;;5089979;27;20196;-72
2021/05/27 05:26:20;;;;;;;8.53;2.07;;;23.60;66.40;;;;;;5121234;27;20209;-71
2021/05/27 05:28:47;;;;;;;7.40;2.00;;;23.50;67.90;;;;;;5119688;27;20273;-71
2021/05/27 05:31:13;;;;;;;4.90;2.00;;;24.10;66.80;;;;;;5119514;27;20185;-73
2021/05/27 05:33:40;;;;;;;4.17;1.80;;;24.80;65.90;;;;;;5120948;27;20194;-71
2021/05/27 05:36:06;;;;;;;10.13;2.07;;;24.30;67.30;;;;;;5111170;27;20688;-72
2021/05/27 05:38:32;;;;;;;8.43;1.90;;;23.90;71.10;;;;;;5104267;27;20268;-72
2021/05/27 05:40:59;;;;;;;8.40;1.70;;;23.70;71.30;;;;;;5122918;27;20330;-72
2021/05/27 05:43:25;;;;;;;8.10;1.97;;;23.80;70.70;;;;;;5087819;27;20212;-72
2021/05/27 05:45:51;;;;;;;4.87;1.90;;;23.80;71.90;;;;;;5102213;27;20692;-72
2021/05/27 05:48:18;;;;;;;6.23;1.73;;;23.70;71.00;;;;;;5106050;27;20189;-72
2021/05/27 05:50:52;;;;;;;5.80;2.03;;;23.70;70.80;;;;;;5102226;27;20192;-72
2021/05/27 05:53:23;;;;;;;5.60;1.70;;;23.70;72.20;;;;;;5119903;27;20199;-73
2021/05/27 05:55:53;;;;;;;5.00;1.87;;;23.70;73.40;;;;;;5087542;27;20203;-72
2021/05/27 05:58:20;;;;;;;2.93;1.70;;;23.50;75.10;;;;;;5106001;27;20280;-73
2021/05/27 06:00:48;;;;;;;5.13;1.77;;;23.60;73.20;;;;;;5106821;27;20228;-73
2021/05/27 06:03:14;;;;;;;6.80;1.97;;;23.80;71.80;;;;;;5082786;27;20232;-71
2021/05/27 06:05:41;;;;;;;4.80;1.70;;;24.00;73.50;;;;;;5090837;27;20189;-71
2021/05/27 06:08:07;;;;;;;2.88;1.88;;;24.10;73.80;;;;;;5121489;27;20721;-71
2021/05/27 06:10:33;;;;;;;6.43;1.60;;;24.10;74.60;;;;;;5085778;27;20225;-71
2021/05/27 06:13:00;;;;;;;5.47;1.63;;;24.10;73.80;;;;;;5093969;27;20210;-71
2021/05/27 06:15:28;;;;;;;9.50;2.30;;;24.20;72.90;;;;;;5103841;27;20205;-73
2021/05/27 06:17:58;;;;;;;6.07;1.93;;;24.50;72.20;;;;;;5122892;27;20294;-71
2021/05/27 06:20:26;;;;;;;8.75;2.00;;;24.40;73.40;;;;;;5117599;27;20186;-72
2021/05/27 06:22:53;;;;;;;8.27;1.80;;;24.70;74.40;;;;;;5106966;27;20816;-71
2021/05/27 06:25:22;;;;;;;4.90;1.75;;;24.80;74.10;;;;;;5101890;27;20264;-73
2021/05/27 06:27:50;;;;;;;11.32;2.40;;;24.80;75.50;;;;;;5117102;27;20223;-73
2021/05/27 06:30:17;;;;;;;7.93;2.40;;;25.00;85.10;;;;;;5100004;27;20177;-72
2021/05/27 06:32:43;;;;;;;11.30;2.80;;;25.20;87.40;;;;;;5105752;27;20261;-74
2021/05/27 06:35:12;;;;;;;10.82;2.78;;;25.30;93.90;;;;;;5120626;27;20189;-73
2021/05/27 06:37:41;;;;;;;12.80;3.10;;;25.50;93.90;;;;;;5119494;27;20192;-71
2021/05/27 06:40:18;;;;;;;8.05;3.08;;;25.40;96.70;;;;;;5104135;28;20223;-73
2021/05/27 06:42:46;;;;;;;14.17;3.10;;;25.50;96.60;;;;;;5107594;27;20235;-72
2021/05/27 06:45:14;;;;;;;12.10;3.00;;;25.50;95.20;;;;;;5103818;27;20189;-73
2021/05/27 06:47:42;;;;;;;6.68;2.80;;;25.40;94.40;;;;;;5082874;27;20216;-73
2021/05/27 06:50:09;;;;;;;9.32;3.00;;;25.40;95.80;;;;;;5107521;27;20272;-73
2021/05/27 06:52:36;;;;;;;12.32;3.75;;;25.40;97.40;;;;;;5122107;27;20188;-73
2021/05/27 06:55:05;;;;;;;13.45;3.63;;;25.40;99.90;;;;;;5114747;27;20193;-73
2021/05/27 06:57:32;;;;;;;15.25;3.70;;;25.40;99.90;;;;;;5097645;28;20216;-73
2021/05/27 06:59:58;;;;;;;11.87;3.70;;;25.40;99.90;;;;;;5084531;27;20283;-70
2021/05/27 07:02:24;;;;;;;13.63;3.90;;;25.40;99.90;;;;;;5098484;28;20246;-71
2021/05/27 07:04:56;;;;;;;11.60;3.43;;;25.40;99.90;;;;;;5082154;28;20181;-73
2021/05/27 07:07:31;;;;;;;12.43;4.07;;;25.40;99.90;;;;;;5090576;28;20205;-71
2021/05/27 07:09:57;;;;;;;8.97;3.57;;;25.30;99.90;;;;;;5088718;28;20632;-70
2021/05/27 07:12:24;;;;;;;9.97;3.33;;;25.40;99.90;;;;;;5116042;27;20196;-71
2021/05/27 07:14:50;;;;;;;14.40;4.30;;;25.50;99.90;;;;;;5118370;28;20622;-70
2021/05/27 07:17:16;;;;;;;9.32;3.90;;;25.60;99.90;;;;;;5098548;28;20317;-70
2021/05/27 07:19:43;;;;;;;11.90;3.58;;;25.60;99.90;;;;;;5103771;27;20195;-73
2021/05/27 07:22:09;;;;;;;12.73;4.10;;;25.60;99.90;;;;;;5104487;27;20282;-71
2021/05/27 07:24:35;;;;;;;13.17;4.47;;;25.60;99.90;;;;;;5108654;27;20173;-73
2021/05/27 07:27:02;;;;;;;11.80;3.70;;;25.70;99.90;;;;;;5108265;27;20728;-70
2021/05/27 07:29:29;;;;;;;13.15;3.72;;;25.70;99.90;;;;;;5123302;27;20237;-72
2021/05/27 07:31:56;;;;;;;10.95;3.80;;;25.90;99.90;;;;;;5100570;27;20189;-73
2021/05/27 07:34:22;;;;;;;10.40;3.80;;;25.90;99.90;;;;;;5122584;27;20285;-73
2021/05/27 07:36:48;;;;;;;13.70;3.60;;;25.90;99.90;;;;;;5106457;27;20204;-73
2021/05/27 07:39:15;;;;;;;10.75;3.78;;;25.90;99.90;;;;;;5087138;27;20686;-73
2021/05/27 07:41:41;;;;;;;11.93;3.90;;;26.00;99.90;;;;;;5106694;27;20189;-70
2021/05/27 07:44:07;;;;;;;12.55;4.00;;;26.00;99.90;;;;;;5117912;27;20173;-74
2021/05/27 07:46:34;;;;;;;15.05;4.10;;;26.20;99.90;;;;;;5100628;27;20190;-73
2021/05/27 07:49:00;;;;;;;11.65;4.05;;;26.30;99.90;;;;;;5087083;27;20800;-70
2021/05/27 07:51:26;;;;;;;13.23;4.07;;;26.40;99.90;;;;;;5122918;27;20193;-73
2021/05/27 07:53:53;;;;;;;10.40;3.63;;;26.40;99.90;;;;;;5108776;27;20226;-70
2021/05/27 07:56:19;;;;;;;16.52;3.90;;;26.30;99.90;;;;;;5095551;27;20545;-71
2021/05/27 07:58:45;;;;;;;10.65;3.83;;;26.30;99.90;;;;;;5107274;27;20193;-70
2021/05/27 08:01:13;;;;;;;13.30;3.63;;;26.50;99.90;;;;;;5101863;27;20272;-71
2021/05/27 08:03:40;;;;;;;7.47;3.78;;;26.70;99.90;;;;;;5106677;27;20219;-70
2021/05/27 08:06:06;;;;;;;17.33;3.65;;;26.90;99.90;;;;;;5089718;27;20205;-70
2021/05/27 08:08:32;;;;;;;11.02;4.25;;;26.90;99.90;;;;;;5120206;27;20177;-70
2021/05/27 08:10:59;;;;;;;12.23;4.05;;;27.10;99.90;;;;;;5102881;27;20192;-71
2021/05/27 08:13:25;;;;;;;10.90;4.03;;;27.20;99.90;;;;;;5103638;27;20192;-71
2021/05/27 08:15:51;;;;;;;12.48;3.92;;;27.10;99.90;;;;;;5119734;27;20299;-70
2021/05/27 08:18:18;;;;;;;15.20;4.53;;;27.20;99.90;;;;;;5104586;27;20641;-71
2021/05/27 08:20:44;;;;;;;13.63;4.10;;;27.30;99.90;;;;;;5103960;27;20188;-71
2021/05/27 08:23:10;;;;;;;15.18;3.88;;;27.30;99.90;;;;;;5103809;27;20215;-70
2021/05/27 08:25:39;;;;;;;13.77;4.40;;;27.40;99.90;;;;;;5120931;27;20180;-71
2021/05/27 08:28:05;;;;;;;11.65;4.00;;;27.60;99.90;;;;;;5120006;27;20182;-71
2021/05/27 08:30:32;;;;;;;12.57;4.55;;;27.60;99.90;;;;;;5124141;27;20980;-70
2021/05/27 08:32:58;;;;;;;16.60;4.28;;;27.50;99.90;;;;;;5107641;27;20193;-72
2021/05/27 08:35:27;;;;;;;15.32;3.90;;;27.60;99.90;;;;;;5105760;27;20195;-70
2021/05/27 08:37:55;;;;;;;10.65;3.92;;;27.70;99.90;;;;;;5085795;27;20184;-71
2021/05/27 08:40:21;;;;;;;16.00;4.07;;;28.10;99.90;;;;;;5103013;27;20196;-70
2021/05/27 08:42:50;;;;;;;11.82;3.95;;;28.10;99.90;;;;;;5122069;27;20208;-71
2021/05/27 08:45:19;;;;;;;17.15;3.65;;;28.20;99.90;;;;;;5099552;27;20181;-71
2021/05/27 08:47:46;;;;;;;10.80;3.80;;;28.40;99.90;;;;;;5106538;27;20181;-71
2021/05/27 08:50:12;;;;;;;10.60;3.63;;;28.40;99.90;;;;;;5106473;27;20899;-71
2021/05/27 08:52:39;;;;;;;11.70;3.17;;;28.60;99.90;;;;;;5086029;27;20241;-71
2021/05/27 08:55:05;;;;;;;13.73;3.80;;;28.60;99.90;;;;;;5100883;27;20193;-71
2021/05/27 08:57:32;;;;;;;8.27;3.35;;;28.70;99.90;;;;;;5101549;27;20535;-71
2021/05/27 08:59:58;;;;;;;10.73;3.35;;;28.80;99.90;;;;;;5101311;27;20200;-70
2021/05/27 09:02:26;;;;;;;9.63;3.22;;;28.90;99.90;;;;;;5102312;27;20208;-71
2021/05/27 09:04:52;;;;;;;10.75;3.25;;;29.10;99.90;;;;;;5110749;27;20224;-71
2021/05/27 09:07:18;;;;;;;7.78;3.50;;;29.30;99.90;;;;;;5126481;27;20197;-71
2021/05/27 09:09:55;;;;;;;14.23;3.22;;;29.30;99.90;;;;;;5123722;27;20192;-71
2021/05/27 09:12:34;;;;;;;11.60;3.67;;;29.20;99.90;;;;;;5099654;27;20181;-71
2021/05/27 09:15:23;;;;;;;11.10;3.58;;;29.40;99.90;;;;;;5122053;27;20181;-72
2021/05/27 09:17:53;;;;;;;13.13;3.67;;;29.50;99.90;;;;;;5104507;27;20545;-72
2021/05/27 09:20:25;;;;;;;7.82;3.17;;;29.50;99.90;;;;;;5104509;27;20186;-71
2021/05/27 09:23:17;;;;;;;11.60;3.58;;;29.50;99.90;;;;;;5121751;27;20202;-71
2021/05/27 09:25:51;;;;;;;10.15;3.63;;;29.70;99.90;;;;;;5107037;27;20184;-71
2021/05/27 09:28:29;;;;;;;14.57;3.70;;;29.80;99.90;;;;;;5103598;27;20208;-71
2021/05/27 09:31:05;;;;;;;11.80;3.60;;;29.90;99.90;;;;;;5120988;27;20196;-71
2021/05/27 09:33:42;;;;;;;11.18;3.53;;;29.90;99.90;;;;;;5100919;27;20177;-71
2021/05/27 09:36:11;;;;;;;12.13;3.60;;;29.90;99.90;;;;;;5103189;27;20193;-71
2021/05/27 09:38:44;;;;;;;9.75;3.67;;;29.90;99.90;;;;;;5120675;27;20185;-71
2021/05/27 09:41:21;;;;;;;14.18;3.60;;;30.00;99.90;;;;;;5119141;27;20192;-71
2021/05/27 09:44:02;;;;;;;20.15;3.75;;;30.00;99.90;;;;;;5103843;27;20216;-71
2021/05/27 09:46:49;;;;;;;18.98;3.70;;;30.00;99.90;;;;;;5098941;27;20225;-71
2021/05/27 09:49:16;;;;;;;8.88;3.47;;;29.90;99.90;;;;;;5084612;27;20182;-71
2021/05/27 09:51:42;;;;;;;12.38;3.70;;;30.00;99.90;;;;;;5108168;27;20641;-72
2021/05/27 09:54:09;;;;;;;11.10;3.25;;;29.90;99.90;;;;;;5089375;27;20218;-71
2021/05/27 09:56:40;;;;;;;11.07;3.55;;;29.80;99.90;;;;;;5110576;27;20199;-71
2021/05/27 09:59:12;;;;;;;9.02;3.90;;;30.00;99.90;;;;;;5085651;27;20241;-72
2021/05/27 10:01:48;;;;;;;8.70;3.60;;;30.00;99.90;;;;;;5118211;27;20650;-71
2021/05/27 10:04:18;;;;;;;15.10;3.67;;;30.20;99.90;;;;;;5115385;27;20242;-72
2021/05/27 10:06:44;;;;;;;9.50;3.47;;;30.30;99.90;;;;;;5101189;27;20657;-71
2021/05/27 10:09:11;;;;;;;12.55;4.00;;;30.30;99.90;;;;;;5090095;27;20204;-71
2021/05/27 10:11:40;;;;;;;12.55;3.65;;;30.40;99.90;;;;;;5084684;27;20201;-71
2021/05/27 10:14:08;;;;;;;8.93;3.50;;;30.50;99.90;;;;;;5120713;27;20185;-71
2021/05/27 10:16:39;;;;;;;12.27;3.92;;;30.60;99.90;;;;;;5101147;27;20193;-70
2021/05/27 10:19:07;;;;;;;8.73;3.58;;;30.70;99.90;;;;;;5115621;27;20185;-70
2021/05/27 10:21:33;;;;;;;9.27;3.17;;;30.70;99.90;;;;;;5103495;27;20193;-70
2021/05/27 10:24:01;;;;;;;14.55;3.30;;;30.80;99.90;;;;;;5102197;27;20213;-70
2021/05/27 10:26:28;;;;;;;17.90;3.58;;;30.80;99.90;;;;;;5120181;27;20310;-71
2021/05/27 10:28:56;;;;;;;12.50;3.47;;;31.00;99.90;;;;;;5083671;27;20190;-71
2021/05/27 10:31:35;;;;;;;10.10;3.95;;;30.80;99.90;;;;;;5096895;27;20198;-70
2021/05/27 10:34:04;;;;;;;7.90;3.05;;;30.70;99.50;;;;;;5117347;27;20242;-71
2021/05/27 10:36:44;;;;;;;13.15;3.67;;;30.80;99.40;;;;;;5101976;27;20185;-71
2021/05/27 10:39:30;;;;;;;10.48;3.92;;;30.70;99.90;;;;;;5106038;27;20271;-71
2021/05/27 10:41:57;;;;;;;8.52;3.35;;;30.70;98.90;;;;;;5080553;27;20181;-70
2021/05/27 10:44:24;;;;;;;9.75;3.80;;;30.50;99.60;;;;;;5114404;27;20188;-70
2021/05/27 10:46:56;;;;;;;13.65;3.58;;;30.50;99.00;;;;;;5110403;27;20177;-71
2021/05/27 10:49:45;;;;;;;9.77;3.50;;;30.50;99.40;;;;;;5101063;27;20286;-70
2021/05/27 10:52:35;;;;;;;14.23;3.47;;;30.20;98.60;;;;;;5083838;27;20610;-70
2021/05/27 10:55:28;;;;;;;17.58;4.18;;;30.30;99.30;;;;;;5084684;27;20184;-72
2021/05/27 10:57:55;;;;;;;18.75;4.22;;;30.30;99.10;;;;;;5119271;27;20181;-70
2021/05/27 11:00:33;;;;;;;11.80;3.88;;;30.50;99.10;;;;;;5104775;28;20241;-72
2021/05/27 11:03:53;;;;;;;19.13;3.80;;;30.40;99.80;;;;;;5119377;27;20704;-72
2021/05/27 11:06:30;;;;;;;18.05;4.10;;;30.40;99.90;;;;;;5076741;28;20221;-71
2021/05/27 11:09:23;;;;;;;13.68;3.88;;;30.50;99.20;;;;;;5114525;27;20192;-72
2021/05/27 11:12:09;;;;;;;11.55;3.65;;;30.50;99.90;;;;;;5095883;28;20298;-71
2021/05/27 11:14:44;;;;;;;15.30;3.47;;;30.50;99.90;;;;;;5107114;28;20197;-72
2021/05/27 11:17:14;;;;;;;8.82;3.53;;;30.40;99.90;;;;;;5099935;28;20196;-70
2021/05/27 11:22:33;;;;;;;13.15;4.25;;;30.50;99.90;;;;;;5099628;28;20204;-72
2021/05/27 11:25:13;;;;;;;15.98;4.18;;;30.40;99.90;;;;;;5114132;27;20685;-70
2021/05/27 11:28:17;;;;;;;10.52;4.45;;;30.20;99.90;;;;;;5098666;28;20192;-70
2021/05/27 11:30:51;;;;;;;12.50;3.45;;;30.30;99.90;;;;;;5102646;28;20946;-72
2021/05/27 11:33:30;;;;;;;18.75;3.88;;;30.30;99.90;;;;;;5102878;27;20188;-70
2021/05/27 11:36:04;;;;;;;13.20;4.50;;;30.20;99.90;;;;;;5101122;28;20184;-70
2021/05/27 11:38:38;;;;;;;12.95;3.78;;;30.20;99.90;;;;;;5123959;27;20224;-72
2021/05/27 11:41:18;;;;;;;11.00;3.58;;;30.30;99.90;;;;;;5116263;27;20276;-71
2021/05/27 11:43:51;;;;;;;20.50;4.40;;;30.20;99.90;;;;;;5101961;28;20224;-71
2021/05/27 11:46:29;;;;;;;9.85;3.50;;;30.30;99.90;;;;;;5085630;28;20173;-69
2021/05/27 11:48:58;;;;;;;12.38;3.70;;;30.10;99.90;;;;;;5098352;28;20185;-72
2021/05/27 11:51:38;;;;;;;17.13;4.25;;;30.10;99.90;;;;;;5101670;28;20267;-69
2021/05/27 11:54:11;;;;;;;17.08;4.25;;;30.30;99.90;;;;;;5099768;28;20193;-69
2021/05/27 11:56:49;;;;;;;10.50;3.78;;;30.30;99.90;;;;;;5117226;28;20192;-69
2021/05/27 11:59:25;;;;;;;14.30;3.92;;;30.50;99.90;;;;;;5099787;28;20189;-70
2021/05/27 12:01:58;;;;;;;13.52;4.03;;;30.40;99.90;;;;;;5101529;28;20192;-69
2021/05/27 12:04:27;;;;;;;12.90;4.47;;;30.30;99.90;;;;;;5105776;28;20635;-69
2021/05/27 12:07:09;;;;;;;19.95;4.63;;;30.30;99.90;;;;;;5107823;27;20204;-69
2021/05/27 12:09:40;;;;;;;13.85;4.20;;;30.30;99.90;;;;;;5118857;27;20670;-69
2021/05/27 12:12:27;;;;;;;16.42;4.30;;;30.30;99.90;;;;;;5105228;27;20184;-69
2021/05/27 12:15:06;;;;;;;13.38;3.92;;;30.40;99.90;;;;;;5104935;27;20185;-69
2021/05/27 12:17:41;;;;;;;17.67;4.22;;;30.40;99.50;;;;;;5104841;27;20218;-70
2021/05/27 12:20:19;;;;;;;11.40;3.72;;;30.40;99.50;;;;;;5105434;27;20295;-70
2021/05/27 12:22:57;;;;;;;12.23;3.85;;;30.50;98.10;;;;;;5119056;27;20269;-69
2021/05/27 12:25:34;;;;;;;10.70;3.88;;;30.40;97.90;;;;;;5119556;27;20616;-69
2021/05/27 12:28:10;;;;;;;12.65;3.95;;;30.20;98.50;;;;;;5084088;27;20276;-70
2021/05/27 12:31:03;;;;;;;16.50;4.20;;;30.00;97.90;;;;;;5106324;27;20185;-71
2021/05/27 12:33:32;;;;;;;11.25;3.33;;;30.30;96.90;;;;;;5087370;27;20193;-71
2021/05/27 12:36:06;;;;;;;12.10;3.95;;;29.90;94.70;;;;;;5091291;27;20184;-71
2021/05/27 12:38:33;;;;;;;9.40;3.38;;;30.00;95.50;;;;;;5120591;27;20712;-71
2021/05/27 12:41:09;;;;;;;15.50;3.83;;;29.90;96.00;;;;;;5121885;27;20192;-71
2021/05/27 12:43:46;;;;;;;9.60;3.22;;;30.10;94.60;;;;;;5089103;27;20212;-69
2021/05/27 12:46:14;;;;;;;8.25;3.20;;;30.50;93.80;;;;;;5108173;27;20187;-71
2021/05/27 12:48:51;;;;;;;16.48;3.03;;;30.70;93.20;;;;;;5125383;27;20213;-71
2021/05/27 12:51:20;;;;;;;17.10;3.45;;;30.70;85.00;;;;;;5104260;27;20182;-71
2021/05/27 12:53:46;;;;;;;28.42;3.65;;;30.50;82.00;;;;;;5106466;27;20223;-71
2021/05/27 12:56:15;;;;;;;11.52;2.88;;;30.80;81.30;;;;;;5119184;27;20192;-72
2021/05/27 12:59:05;;;;;;;13.20;2.80;;;30.60;81.40;;;;;;5088635;27;20191;-72
2021/05/27 13:01:37;;;;;;;14.18;3.00;;;30.80;79.80;;;;;;5088563;27;20553;-69
2021/05/27 13:04:09;;;;;;;16.17;3.40;;;30.60;81.20;;;;;;5118169;27;20297;-71
2021/05/27 13:06:39;;;;;;;15.10;4.07;;;30.60;81.00;;;;;;5119803;27;20209;-72
2021/05/27 13:09:14;;;;;;;14.40;3.75;;;30.80;89.10;;;;;;5102213;27;20501;-71
2021/05/27 13:11:57;;;;;;;10.00;3.20;;;31.00;88.00;;;;;;5103483;27;20204;-71